Time;durP1;ratioP1;P1;durP2;ratioP2;P2;SDS_P1;SDS_P2;PMS_P1;PMS_P2;Temp;Humidity;BMP_temperature;BMP_pressure;BME280_temperature;BME280_humidity;BME280_pressure;Samples;Min_cycle;Max_cycle;Signal;HPM_P1;HPM_P2
2021/07/10 00:00:05;;;;;;;;;;;;;;;21.42;54.19;96164.41;1019630;29;1060;-74
2021/07/10 00:00:37;;;;;;;;;;;;;;;21.41;54.14;96166.25;1024588;29;773;-75
2021/07/10 00:01:07;;;;;;;;;;;;;;;21.41;54.29;96162.84;1018868;29;1296;-74
2021/07/10 00:01:38;;;;;;;;;;;;;;;21.41;54.25;96166.25;1011926;29;1302;-74
2021/07/10 00:02:08;;;;;;;;;;;;;;;21.40;54.15;96163.88;1012581;29;1024;-75
2021/07/10 00:02:41;;;;;;;;;;;;;;;21.41;54.16;96165.50;1012670;29;1234;-72
2021/07/10 00:03:12;;;;;;;;;;;;;;;21.41;54.38;96162.84;1012747;29;1505;-73
2021/07/10 00:03:42;;;;;;;;;;;;;;;21.40;54.09;96163.88;1013007;29;1465;-75
2021/07/10 00:04:12;;;;;;;;;;;;;;;21.39;54.23;96160.47;1013801;29;2796;-74
2021/07/10 00:04:45;;;;;;;;;;;;;;;21.40;54.17;96155.97;1015398;29;2622;-73
2021/07/10 00:05:16;;;;;;;;;;;;;;;21.39;54.12;96162.31;1016828;29;872;-75
2021/07/10 00:05:46;;;;;;;;;;;;;;;21.39;54.24;96159.69;1015481;29;1203;-74
2021/07/10 00:06:16;;;;;;;;;;;;;;;21.39;54.23;96154.41;1012556;29;1191;-75
2021/07/10 00:06:47;;;;;;;;;;;;;;;21.39;54.25;96157.06;1013934;29;1111;-75
2021/07/10 00:07:17;;;;;;;;;;;;;;;21.40;54.11;96162.06;1020403;29;1266;-74
2021/07/10 00:07:48;;;;;;;;;;;;;;;21.39;54.12;96157.06;1021639;29;1082;-75
2021/07/10 00:08:19;;;;;;;;;;;;;;;21.37;54.17;96152.03;1019462;29;797;-74
2021/07/10 00:08:49;;;;;;;;;;;;;;;21.38;54.23;96152.81;1012361;29;1191;-74
2021/07/10 00:09:19;;;;;;;;;;;;;;;21.37;53.91;96154.66;1012401;29;1345;-75
2021/07/10 00:09:50;;;;;;;;;;;;;;;21.38;54.09;96152.81;1011942;29;3029;-75
2021/07/10 00:10:20;;;;;;;;;;;;;;;21.37;54.03;96148.63;1012745;29;1377;-75
2021/07/10 00:10:51;;;;;;;;;;;;;;;21.36;54.13;96150.47;1018268;29;1902;-75
2021/07/10 00:11:21;;;;;;;;;;;;;;;21.36;54.12;96147.03;1014776;29;1201;-75
2021/07/10 00:11:58;;;;;;;;;;;;;;;21.36;54.18;96153.09;1009591;29;1940;-76
2021/07/10 00:12:29;;;;;;;;;;;;;;;21.36;54.12;96152.31;1014420;29;1163;-74
2021/07/10 00:13:02;;;;;;;;;;;;;;;21.35;54.33;96146.22;1017580;29;1087;-74
2021/07/10 00:13:33;;;;;;;;;;;;;;;21.35;54.26;96151.50;1016457;29;826;-76
2021/07/10 00:14:03;;;;;;;;;;;;;;;21.37;54.41;96151.25;1016735;29;1501;-75
2021/07/10 00:14:33;;;;;;;;;;;;;;;21.35;54.35;96146.22;1022234;29;1192;-75
2021/07/10 00:15:04;;;;;;;;;;;;;;;21.36;54.14;96141.75;1019245;29;2521;-75
2021/07/10 00:15:35;;;;;;;;;;;;;;;21.36;54.35;96147.03;1016434;29;1233;-74
2021/07/10 00:16:05;;;;;;;;;;;;;;;21.36;54.19;96142.56;1024550;29;1074;-75
2021/07/10 00:16:35;;;;;;;;;;;;;;;21.35;54.18;96145.47;1023392;29;1112;-75
2021/07/10 00:17:06;;;;;;;;;;;;;;;21.36;54.09;96144.38;1022039;29;2464;-74
2021/07/10 00:17:36;;;;;;;;;;;;;;;21.36;54.13;96141.75;1023508;29;1229;-75
2021/07/10 00:18:07;;;;;;;;;;;;;;;21.36;54.36;96141.75;1023693;29;1177;-74
2021/07/10 00:18:37;;;;;;;;;;;;;;;21.36;54.23;96145.19;1024693;29;745;-75
2021/07/10 00:19:08;;;;;;;;;;;;;;;21.36;54.19;96142.56;1024193;28;1289;-75
2021/07/10 00:19:38;;;;;;;;;;;;;;;21.36;54.27;96139.13;1017054;29;1691;-74
2021/07/10 00:20:08;;;;;;;;;;;;;;;21.36;54.22;96136.47;1015589;29;2509;-75
2021/07/10 00:20:39;;;;;;;;;;;;;;;21.36;54.14;96141.75;1016500;29;1078;-74
2021/07/10 00:21:09;;;;;;;;;;;;;;;21.36;54.21;96144.38;1016398;29;1808;-75
2021/07/10 00:21:39;;;;;;;;;;;;;;;21.35;54.19;96140.97;1013139;29;1206;-76
2021/07/10 00:22:10;;;;;;;;;;;;;;;21.36;54.26;96141.75;1012340;29;1240;-75
2021/07/10 00:22:40;;;;;;;;;;;;;;;21.36;54.12;96139.91;1008937;29;1140;-75
2021/07/10 00:23:11;;;;;;;;;;;;;;;21.36;54.23;96136.47;1011821;29;861;-73
2021/07/10 00:23:41;;;;;;;;;;;;;;;21.36;54.06;96132.00;1011820;29;1213;-75
2021/07/10 00:24:11;;;;;;;;;;;;;;;21.37;54.22;96138.06;1012412;29;730;-74
2021/07/10 00:24:41;;;;;;;;;;;;;;;21.37;54.28;96138.06;1014587;29;1298;-75
2021/07/10 00:25:12;;;;;;;;;;;;;;;21.37;54.26;96138.06;1011551;29;2496;-76
2021/07/10 00:25:43;;;;;;;;;;;;;;;21.36;54.20;96129.38;1008609;29;1470;-75
2021/07/10 00:26:13;;;;;;;;;;;;;;;21.36;54.26;96137.28;1012459;29;1254;-74
2021/07/10 00:26:43;;;;;;;;;;;;;;;21.37;54.02;96138.06;1015440;29;1238;-75
2021/07/10 00:27:14;;;;;;;;;;;;;;;21.36;54.07;96132.00;1009236;29;1777;-75
2021/07/10 00:27:44;;;;;;;;;;;;;;;21.36;54.29;96131.22;1018021;29;1395;-74
2021/07/10 00:28:14;;;;;;;;;;;;;;;21.35;54.12;96137.56;1022824;29;1122;-75
2021/07/10 00:28:45;;;;;;;;;;;;;;;21.35;54.19;96135.69;1021252;29;1070;-75
2021/07/10 00:29:16;;;;;;;;;;;;;;;21.35;54.27;96133.03;1024537;28;1302;-76
2021/07/10 00:29:46;;;;;;;;;;;;;;;21.35;54.18;96132.28;1023847;29;1352;-75
2021/07/10 00:30:20;;;;;;;;;;;;;;;21.35;54.15;96132.28;1018118;29;2410;-73
2021/07/10 00:30:50;;;;;;;;;;;;;;;21.36;53.89;96125.94;1015715;29;1910;-74
2021/07/10 00:31:21;;;;;;;;;;;;;;;21.37;54.03;96127.53;1012489;29;1664;-75
2021/07/10 00:31:51;;;;;;;;;;;;;;;21.37;54.20;96127.53;1013591;29;997;-74
2021/07/10 00:32:21;;;;;;;;;;;;;;;21.37;53.88;96130.16;1011682;29;2527;-74
2021/07/10 00:32:52;;;;;;;;;;;;;;;21.36;54.06;96118.03;1017955;29;1198;-74
2021/07/10 00:33:22;;;;;;;;;;;;;;;21.37;54.03;96127.53;1020815;29;1234;-76
2021/07/10 00:33:52;;;;;;;;;;;;;;;21.36;54.18;96126.72;1022207;29;1162;-75
2021/07/10 00:34:23;;;;;;;;;;;;;;;21.36;54.25;96125.94;1024623;29;1067;-76
2021/07/10 00:34:53;;;;;;;;;;;;;;;21.36;54.08;96125.94;1023346;29;1276;-75
2021/07/10 00:35:23;;;;;;;;;;;;;;;21.35;54.28;96124.38;1016901;29;2845;-75
2021/07/10 00:35:53;;;;;;;;;;;;;;;21.36;53.97;96128.56;1016401;29;1099;-74
2021/07/10 00:36:24;;;;;;;;;;;;;;;21.34;53.91;96120.94;1015028;29;1230;-74
2021/07/10 00:36:54;;;;;;;;;;;;;;;21.34;54.28;96117.50;1009953;29;1643;-74
2021/07/10 00:37:24;;;;;;;;;;;;;;;21.34;54.09;96128.84;1012045;29;1356;-75
2021/07/10 00:37:55;;;;;;;;;;;;;;;21.34;54.13;96123.56;1014068;29;1171;-75
2021/07/10 00:38:25;;;;;;;;;;;;;;;21.34;54.24;96128.84;1007629;29;1338;-73
2021/07/10 00:38:56;;;;;;;;;;;;;;;21.35;54.21;96129.63;1014791;29;1119;-74
2021/07/10 00:39:27;;;;;;;;;;;;;;;21.34;54.29;96128.03;1020487;29;1316;-75
2021/07/10 00:39:57;;;;;;;;;;;;;;;21.34;53.98;96122.78;1020198;29;1347;-75
2021/07/10 00:40:27;;;;;;;;;;;;;;;21.34;54.02;96125.41;1017604;29;2920;-74
2021/07/10 00:40:58;;;;;;;;;;;;;;;21.34;54.06;96125.41;1017605;29;2777;-75
2021/07/10 00:41:28;;;;;;;;;;;;;;;21.34;54.05;96128.03;1020340;29;766;-75
2021/07/10 00:41:58;;;;;;;;;;;;;;;21.34;54.02;96126.22;1019087;29;2129;-73
2021/07/10 00:42:28;;;;;;;;;;;;;;;21.32;53.95;96117.78;1016141;29;2512;-74
2021/07/10 00:42:59;;;;;;;;;;;;;;;21.34;54.22;96125.41;1015053;29;1151;-74
2021/07/10 00:43:29;;;;;;;;;;;;;;;21.33;54.11;96121.22;1015045;29;1254;-76
2021/07/10 00:43:59;;;;;;;;;;;;;;;21.32;54.17;96119.63;1013510;29;972;-74
2021/07/10 00:44:29;;;;;;;;;;;;;;;21.32;54.32;96115.16;1012525;29;757;-74
2021/07/10 00:45:00;;;;;;;;;;;;;;;21.32;54.00;96120.41;1015458;29;1824;-74
2021/07/10 00:45:30;;;;;;;;;;;;;;;21.32;54.06;96116.97;1018575;29;2670;-74
2021/07/10 00:46:00;;;;;;;;;;;;;;;21.32;53.97;96106.44;1023266;29;1099;-74
2021/07/10 00:46:31;;;;;;;;;;;;;;;21.32;53.95;96116.97;1024352;29;1224;-74
2021/07/10 00:47:01;;;;;;;;;;;;;;;21.31;53.90;96118.81;1021751;29;1193;-75
2021/07/10 00:47:31;;;;;;;;;;;;;;;21.31;54.04;96118.81;1020198;29;1419;-75
2021/07/10 00:48:02;;;;;;;;;;;;;;;21.32;54.04;96114.34;1019332;29;1214;-74
2021/07/10 00:48:32;;;;;;;;;;;;;;;21.32;54.09;96119.63;1013637;29;1127;-75
2021/07/10 00:49:02;;;;;;;;;;;;;;;21.31;54.14;96110.91;1015731;29;1283;-75
2021/07/10 00:49:33;;;;;;;;;;;;;;;21.32;54.15;96116.97;1015923;29;1206;-75
2021/07/10 00:50:10;;;;;;;;;;;;;;;21.32;54.06;96119.63;1016274;29;1170;-75
2021/07/10 00:50:40;;;;;;;;;;;;;;;21.31;54.17;96121.47;1015928;29;2448;-75
2021/07/10 00:51:10;;;;;;;;;;;;;;;21.31;53.85;96108.28;1016735;29;1408;-74
2021/07/10 00:51:41;;;;;;;;;;;;;;;21.31;54.03;96118.06;1014258;29;1258;-74
2021/07/10 00:52:11;;;;;;;;;;;;;;;21.32;53.96;96114.34;1013417;29;1415;-75
2021/07/10 00:52:41;;;;;;;;;;;;;;;21.32;53.82;96122.25;1013514;29;1092;-75
2021/07/10 00:53:11;;;;;;;;;;;;;;;21.30;53.84;96117.25;1008362;29;1917;-74
2021/07/10 00:53:42;;;;;;;;;;;;;;;21.30;54.10;96112.00;1010760;29;1329;-74
2021/07/10 00:54:12;;;;;;;;;;;;;;;21.30;53.98;96114.63;1013335;29;825;-75
2021/07/10 00:54:42;;;;;;;;;;;;;;;21.30;53.78;96109.34;1013016;29;1111;-74
2021/07/10 00:55:13;;;;;;;;;;;;;;;21.30;54.05;96104.06;1016426;29;2417;-74
2021/07/10 00:55:43;;;;;;;;;;;;;;;21.28;54.05;96108.81;1017567;29;985;-75
2021/07/10 00:56:13;;;;;;;;;;;;;;;21.30;54.10;96111.19;1020252;29;1520;-74
2021/07/10 00:56:45;;;;;;;;;;;;;;;21.30;53.75;96103.28;1021113;29;1233;-75
2021/07/10 00:57:16;;;;;;;;;;;;;;;21.31;54.08;96104.88;1017025;29;1145;-74
2021/07/10 00:57:46;;;;;;;;;;;;;;;21.29;54.03;96097.22;1018051;29;1103;-74
2021/07/10 00:58:16;;;;;;;;;;;;;;;21.29;53.92;96096.44;1017711;29;1189;-75
2021/07/10 00:58:46;;;;;;;;;;;;;;;21.30;53.97;96104.06;1018474;29;1232;-75
2021/07/10 00:59:17;;;;;;;;;;;;;;;21.30;54.05;96103.28;1022169;28;1470;-74
2021/07/10 00:59:47;;;;;;;;;;;;;;;21.30;53.87;96100.63;1021977;29;1185;-74
2021/07/10 01:00:18;;;;;;;;;;;;;;;21.30;54.04;96096.16;1018617;29;2487;-74
2021/07/10 01:00:48;;;;;;;;;;;;;;;21.31;54.03;96104.88;1013986;29;1645;-73
2021/07/10 01:01:18;;;;;;;;;;;;;;;21.31;53.82;96108.28;1013403;29;1028;-74
2021/07/10 01:01:49;;;;;;;;;;;;;;;21.31;53.95;96107.50;1012126;29;1148;-74
2021/07/10 01:02:19;;;;;;;;;;;;;;;21.30;53.87;96106.72;1017587;29;1264;-74
2021/07/10 01:02:50;;;;;;;;;;;;;;;21.30;53.71;96106.72;1018791;29;1189;-74
2021/07/10 01:03:21;;;;;;;;;;;;;;;21.30;53.76;96111.19;1013178;29;1187;-74
2021/07/10 01:03:51;;;;;;;;;;;;;;;21.29;53.73;96107.00;1014344;29;1138;-74
2021/07/10 01:04:22;;;;;;;;;;;;;;;21.29;53.90;96109.63;1006893;29;2185;-74
2021/07/10 01:04:52;;;;;;;;;;;;;;;21.29;53.73;96107.00;1006918;29;1342;-74
2021/07/10 01:05:25;;;;;;;;;;;;;;;21.28;53.69;96114.09;1004525;29;2487;-74
2021/07/10 01:05:55;;;;;;;;;;;;;;;21.27;53.90;96106.47;1005685;29;1143;-74
2021/07/10 01:06:26;;;;;;;;;;;;;;;21.27;53.89;96107.22;1010287;29;781;-74
2021/07/10 01:06:56;;;;;;;;;;;;;;;21.27;53.79;96106.47;1017076;29;1175;-75
2021/07/10 01:07:26;;;;;;;;;;;;;;;21.27;54.01;96101.19;1017315;29;1375;-74
2021/07/10 01:07:57;;;;;;;;;;;;;;;21.27;53.90;96107.22;1015466;29;1419;-74
2021/07/10 01:08:27;;;;;;;;;;;;;;;21.27;53.79;96103.84;1016257;29;1130;-74
2021/07/10 01:08:58;;;;;;;;;;;;;;;21.28;53.69;96105.41;1016338;29;1241;-75
2021/07/10 01:09:28;;;;;;;;;;;;;;;21.27;53.98;96103.84;1012515;29;2840;-74
2021/07/10 01:09:58;;;;;;;;;;;;;;;21.26;53.85;96102.25;1020726;29;1630;-73
2021/07/10 01:10:28;;;;;;;;;;;;;;;21.25;53.91;96098.81;1019565;29;2367;-74
2021/07/10 01:10:59;;;;;;;;;;;;;;;21.26;53.87;96099.59;1023747;29;1968;-75
2021/07/10 01:11:29;;;;;;;;;;;;;;;21.26;53.76;96102.25;1021089;29;1433;-74
2021/07/10 01:11:59;;;;;;;;;;;;;;;21.26;53.82;96095.13;1019461;29;1190;-74
2021/07/10 01:12:30;;;;;;;;;;;;;;;21.27;53.75;96095.94;1009207;29;1622;-74
2021/07/10 01:13:00;;;;;;;;;;;;;;;21.28;53.73;96097.47;1012201;29;1168;-75
2021/07/10 01:13:31;;;;;;;;;;;;;;;21.27;53.71;96101.19;1010568;29;1307;-75
2021/07/10 01:14:02;;;;;;;;;;;;;;;21.26;53.94;96094.31;1009519;29;1261;-75
2021/07/10 01:14:32;;;;;;;;;;;;;;;21.26;53.76;96095.13;1009141;29;1247;-74
2021/07/10 01:15:03;;;;;;;;;;;;;;;21.26;53.93;96091.69;1008810;29;1231;-74
2021/07/10 01:15:33;;;;;;;;;;;;;;;21.27;53.78;96090.66;1008670;29;2428;-75
2021/07/10 01:16:04;;;;;;;;;;;;;;;21.27;53.74;96095.94;1012640;29;1250;-74
2021/07/10 01:16:34;;;;;;;;;;;;;;;21.26;53.63;96089.06;1015849;29;1238;-75
2021/07/10 01:17:04;;;;;;;;;;;;;;;21.26;53.56;96089.06;1023532;29;1162;-74
2021/07/10 01:17:34;;;;;;;;;;;;;;;21.26;53.75;96089.84;1013080;29;2359;-74
2021/07/10 01:18:05;;;;;;;;;;;;;;;21.28;53.52;96094.84;1019555;29;1206;-74
2021/07/10 01:18:35;;;;;;;;;;;;;;;21.27;53.79;96094.06;1017011;29;793;-75
2021/07/10 01:19:06;;;;;;;;;;;;;;;21.27;53.66;96086.16;1018898;29;1277;-74
2021/07/10 01:19:36;;;;;;;;;;;;;;;21.26;53.99;96091.69;1020929;29;1557;-74
2021/07/10 01:20:08;;;;;;;;;;;;;;;21.25;53.80;96090.91;1020696;29;1119;-74
2021/07/10 01:20:45;;;;;;;;;;;;;;;21.24;53.90;96091.97;1016783;29;2911;-75
2021/07/10 01:21:16;;;;;;;;;;;;;;;21.25;53.88;96093.53;1021070;29;1125;-75
2021/07/10 01:21:47;;;;;;;;;;;;;;;21.26;53.93;96094.31;1018206;29;1074;-74
2021/07/10 01:22:17;;;;;;;;;;;;;;;21.25;53.87;96083.00;1021072;29;1244;-75
2021/07/10 01:22:48;;;;;;;;;;;;;;;21.25;53.71;96088.25;1018141;29;1247;-74
2021/07/10 01:23:19;;;;;;;;;;;;;;;21.24;53.84;96086.69;1020232;29;778;-74
2021/07/10 01:23:50;;;;;;;;;;;;;;;21.25;53.77;96092.72;1020212;29;1169;-75
2021/07/10 01:24:21;;;;;;;;;;;;;;;21.25;53.82;96090.09;1014166;29;848;-74
2021/07/10 01:24:51;;;;;;;;;;;;;;;21.24;53.86;96088.53;1020686;29;1091;-73
2021/07/10 01:25:22;;;;;;;;;;;;;;;21.25;53.53;96095.38;1023193;29;2531;-75
2021/07/10 01:25:52;;;;;;;;;;;;;;;21.25;53.82;96088.25;1022320;29;1087;-74
2021/07/10 01:26:23;;;;;;;;;;;;;;;21.25;53.55;96084.81;1022203;29;1177;-74
2021/07/10 01:26:53;;;;;;;;;;;;;;;21.25;53.58;96087.47;1023085;29;1563;-74
2021/07/10 01:27:23;;;;;;;;;;;;;;;21.25;53.78;96087.47;1017122;29;1210;-74
2021/07/10 01:27:55;;;;;;;;;;;;;;;21.24;53.63;96088.53;1019122;29;1150;-75
2021/07/10 01:28:25;;;;;;;;;;;;;;;21.24;53.80;96086.69;1016777;29;1197;-74
2021/07/10 01:28:55;;;;;;;;;;;;;;;21.25;53.76;96084.81;1014549;29;1223;-74
2021/07/10 01:29:26;;;;;;;;;;;;;;;21.25;53.57;96084.81;1016709;29;1424;-74
2021/07/10 01:29:56;;;;;;;;;;;;;;;21.23;53.51;96086.94;1019482;29;1139;-76
2021/07/10 01:30:26;;;;;;;;;;;;;;;21.24;53.71;96080.63;1019804;29;2607;-74
2021/07/10 01:30:57;;;;;;;;;;;;;;;21.24;53.70;96085.91;1015155;29;1970;-74
2021/07/10 01:31:27;;;;;;;;;;;;;;;21.23;53.43;96084.31;1009151;29;1457;-74
2021/07/10 01:31:58;;;;;;;;;;;;;;;21.24;53.63;96084.06;1008912;29;1737;-75
2021/07/10 01:32:28;;;;;;;;;;;;;;;21.24;53.62;96085.91;1009490;29;1342;-74
2021/07/10 01:32:58;;;;;;;;;;;;;;;21.24;53.61;96075.34;1011921;29;1160;-74
2021/07/10 01:33:29;;;;;;;;;;;;;;;21.23;53.71;96079.81;1020699;29;1058;-74
2021/07/10 01:34:00;;;;;;;;;;;;;;;21.23;53.59;96082.47;1020797;29;1177;-75
2021/07/10 01:34:34;;;;;;;;;;;;;;;21.23;53.70;96079.81;1019646;29;2809;-75
2021/07/10 01:35:04;;;;;;;;;;;;;;;21.24;53.67;96081.41;1014338;29;1127;-75
2021/07/10 01:35:35;;;;;;;;;;;;;;;21.23;53.57;96079.03;1012207;29;2901;-74
2021/07/10 01:36:05;;;;;;;;;;;;;;;21.23;53.60;96081.66;1017134;29;1104;-75
2021/07/10 01:36:35;;;;;;;;;;;;;;;21.23;53.50;96079.03;1021684;29;1236;-74
2021/07/10 01:37:06;;;;;;;;;;;;;;;21.22;53.48;96083.53;1024442;29;1225;-74
2021/07/10 01:37:37;;;;;;;;;;;;;;;21.23;53.70;96077.19;1021422;29;1049;-73
2021/07/10 01:38:07;;;;;;;;;;;;;;;21.23;53.64;96074.56;1024054;29;1289;-74
2021/07/10 01:38:38;;;;;;;;;;;;;;;21.23;53.50;96074.56;1024958;29;1141;-73
2021/07/10 01:39:08;;;;;;;;;;;;;;;21.23;53.56;96079.03;1020135;29;2341;-73
2021/07/10 01:39:39;;;;;;;;;;;;;;;21.22;53.43;96073.00;1021341;29;1217;-74
2021/07/10 01:40:10;;;;;;;;;;;;;;;21.23;53.70;96076.41;1025181;29;1272;-75
2021/07/10 01:40:40;;;;;;;;;;;;;;;21.23;53.64;96071.13;1016881;29;2141;-73
2021/07/10 01:41:11;;;;;;;;;;;;;;;21.23;53.53;96073.75;1020950;29;828;-74
2021/07/10 01:41:42;;;;;;;;;;;;;;;21.22;53.50;96072.19;1020774;29;1190;-76
2021/07/10 01:42:12;;;;;;;;;;;;;;;21.21;53.54;96066.13;1019788;29;1150;-74
2021/07/10 01:42:42;;;;;;;;;;;;;;;21.21;53.73;96071.41;1021914;29;1177;-74
2021/07/10 01:43:13;;;;;;;;;;;;;;;21.22;53.42;96075.63;1025061;29;797;-75
2021/07/10 01:43:43;;;;;;;;;;;;;;;21.22;53.58;96074.84;1022997;29;1368;-75
2021/07/10 01:44:13;;;;;;;;;;;;;;;21.21;53.61;96065.34;1020966;29;1362;-75
2021/07/10 01:44:44;;;;;;;;;;;;;;;21.21;53.59;96071.41;1021747;29;1285;-74
2021/07/10 01:45:16;;;;;;;;;;;;;;;21.20;53.42;96064.56;1023145;29;1579;-75
2021/07/10 01:45:46;;;;;;;;;;;;;;;21.22;53.71;96066.94;1015737;29;2610;-75
2021/07/10 01:46:18;;;;;;;;;;;;;;;21.21;53.43;96066.13;1020984;29;516;-75
2021/07/10 01:46:48;;;;;;;;;;;;;;;21.21;53.58;96066.13;1021027;29;1118;-74
2021/07/10 01:47:19;;;;;;;;;;;;;;;21.21;53.46;96070.59;1019376;29;1249;-75
2021/07/10 01:47:49;;;;;;;;;;;;;;;21.22;53.49;96061.66;1022434;29;1170;-74
2021/07/10 01:48:19;;;;;;;;;;;;;;;21.21;53.68;96066.13;1024914;29;738;-74
2021/07/10 01:48:50;;;;;;;;;;;;;;;21.21;53.67;96062.69;1017797;29;1262;-75
2021/07/10 01:49:20;;;;;;;;;;;;;;;21.21;53.75;96065.34;1016982;29;1390;-75
2021/07/10 01:49:51;;;;;;;;;;;;;;;21.21;53.53;96065.34;1010726;29;1044;-74
2021/07/10 01:50:21;;;;;;;;;;;;;;;21.21;53.54;96062.69;1009408;29;1131;-74
2021/07/10 01:50:51;;;;;;;;;;;;;;;21.20;53.72;96063.78;1013984;29;2857;-74
2021/07/10 01:51:21;;;;;;;;;;;;;;;21.20;53.59;96064.56;1021153;29;769;-74
2021/07/10 01:51:52;;;;;;;;;;;;;;;21.20;53.73;96061.13;1023492;29;1042;-76
2021/07/10 01:52:22;;;;;;;;;;;;;;;21.20;53.76;96061.94;1017306;29;1251;-74
2021/07/10 01:52:53;;;;;;;;;;;;;;;21.20;53.62;96058.50;1016958;29;1142;-74
2021/07/10 01:53:23;;;;;;;;;;;;;;;21.19;53.55;96056.91;1016076;29;1189;-75
2021/07/10 01:53:53;;;;;;;;;;;;;;;21.19;53.70;96057.69;1011225;29;1742;-74
2021/07/10 01:54:23;;;;;;;;;;;;;;;21.20;53.57;96061.94;1009270;29;705;-76
2021/07/10 01:54:54;;;;;;;;;;;;;;;21.19;53.84;96062.97;1013525;29;1263;-75
2021/07/10 01:55:24;;;;;;;;;;;;;;;21.19;53.62;96054.28;1013436;29;2540;-75
2021/07/10 01:55:54;;;;;;;;;;;;;;;21.18;53.76;96063.25;1014537;29;1944;-75
2021/07/10 01:56:24;;;;;;;;;;;;;;;21.19;53.87;96059.53;1011082;29;1412;-75
2021/07/10 01:56:55;;;;;;;;;;;;;;;21.19;53.69;96064.81;1017680;29;1594;-74
2021/07/10 01:57:25;;;;;;;;;;;;;;;21.20;53.73;96058.50;1013201;29;1487;-74
2021/07/10 01:57:55;;;;;;;;;;;;;;;21.20;53.51;96061.13;1012907;29;1120;-75
2021/07/10 01:58:25;;;;;;;;;;;;;;;21.20;53.74;96055.88;1016347;29;1372;-74
2021/07/10 01:58:56;;;;;;;;;;;;;;;21.20;53.68;96056.66;1016815;29;1142;-75
2021/07/10 01:59:26;;;;;;;;;;;;;;;21.20;53.59;96058.50;1021124;29;1211;-74
2021/07/10 01:59:56;;;;;;;;;;;;;;;21.19;53.52;96049.78;1023674;29;1139;-75
2021/07/10 02:00:27;;;;;;;;;;;;;;;21.20;53.51;96058.50;1023511;28;2578;-74
2021/07/10 02:00:58;;;;;;;;;;;;;;;21.20;53.55;96053.22;1022755;29;2296;-75
2021/07/10 02:01:28;;;;;;;;;;;;;;;21.19;53.61;96049.78;1025298;28;1197;-75
2021/07/10 02:01:58;;;;;;;;;;;;;;;21.19;53.53;96055.06;1024506;29;1270;-75
2021/07/10 02:02:29;;;;;;;;;;;;;;;21.20;53.70;96058.50;1017079;29;1939;-75
2021/07/10 02:02:59;;;;;;;;;;;;;;;21.19;53.59;96052.44;1019860;29;1246;-75
2021/07/10 02:03:29;;;;;;;;;;;;;;;21.20;53.46;96054.03;1016835;29;746;-75
2021/07/10 02:04:00;;;;;;;;;;;;;;;21.19;53.44;96051.63;1012113;29;2484;-75
2021/07/10 02:04:30;;;;;;;;;;;;;;;21.19;53.34;96049.00;1015326;29;2442;-74
2021/07/10 02:05:01;;;;;;;;;;;;;;;21.20;53.62;96051.38;1020091;29;1198;-75
2021/07/10 02:05:31;;;;;;;;;;;;;;;21.20;53.39;96047.94;1018035;29;2660;-74
2021/07/10 02:06:03;;;;;;;;;;;;;;;21.20;53.61;96053.22;1012033;29;1207;-75
2021/07/10 02:06:33;;;;;;;;;;;;;;;21.19;53.74;96043.72;1012899;29;880;-75
2021/07/10 02:07:03;;;;;;;;;;;;;;;21.20;53.44;96050.59;1005156;29;1236;-75
2021/07/10 02:07:34;;;;;;;;;;;;;;;21.20;53.63;96042.69;1005770;29;1622;-74
2021/07/10 02:08:04;;;;;;;;;;;;;;;21.19;53.68;96052.44;1016008;29;1159;-75
2021/07/10 02:08:34;;;;;;;;;;;;;;;21.19;53.53;96041.09;1015524;29;1134;-74
2021/07/10 02:09:05;;;;;;;;;;;;;;;21.19;53.67;96046.34;1020301;29;1111;-74
2021/07/10 02:09:35;;;;;;;;;;;;;;;21.18;53.53;96050.88;1015860;29;2830;-74
2021/07/10 02:10:06;;;;;;;;;;;;;;;21.19;53.65;96041.09;1014614;29;2393;-74
2021/07/10 02:10:36;;;;;;;;;;;;;;;21.18;53.39;96040.31;1017614;29;2673;-75
2021/07/10 02:11:07;;;;;;;;;;;;;;;21.18;53.62;96040.31;1013194;29;1311;-74
2021/07/10 02:11:37;;;;;;;;;;;;;;;21.18;53.44;96040.31;1016565;29;1822;-74
2021/07/10 02:12:08;;;;;;;;;;;;;;;21.19;53.41;96038.44;1017850;29;1685;-74
2021/07/10 02:12:39;;;;;;;;;;;;;;;21.18;53.38;96042.16;1016719;29;1190;-73
2021/07/10 02:13:10;;;;;;;;;;;;;;;21.19;53.45;96039.25;1020958;29;761;-73
2021/07/10 02:13:40;;;;;;;;;;;;;;;21.18;53.39;96039.53;1021012;29;1129;-74
2021/07/10 02:14:11;;;;;;;;;;;;;;;21.19;53.52;96041.88;1016678;29;1385;-74
2021/07/10 02:14:41;;;;;;;;;;;;;;;21.18;53.52;96040.31;1013129;29;1215;-74
2021/07/10 02:15:11;;;;;;;;;;;;;;;21.19;53.62;96041.88;1016051;29;1162;-73
2021/07/10 02:15:42;;;;;;;;;;;;;;;21.18;53.43;96040.31;1012289;29;2545;-73
2021/07/10 02:16:15;;;;;;;;;;;;;;;21.18;53.42;96044.78;1016987;29;849;-74
2021/07/10 02:16:45;;;;;;;;;;;;;;;21.19;53.47;96041.88;1022008;29;1086;-74
2021/07/10 02:17:16;;;;;;;;;;;;;;;21.19;53.69;96041.09;1018282;29;2930;-74
2021/07/10 02:17:47;;;;;;;;;;;;;;;21.19;53.38;96041.09;1020850;29;1396;-75
2021/07/10 02:18:17;;;;;;;;;;;;;;;21.19;53.66;96035.81;1016557;29;1183;-74
2021/07/10 02:18:47;;;;;;;;;;;;;;;21.19;53.50;96041.09;1015101;29;1080;-74
2021/07/10 02:19:18;;;;;;;;;;;;;;;21.20;53.33;96042.69;1009625;29;1301;-75
2021/07/10 02:19:48;;;;;;;;;;;;;;;21.19;53.67;96044.53;1015525;29;1681;-74
2021/07/10 02:20:19;;;;;;;;;;;;;;;21.19;53.47;96035.81;1013652;29;1217;-73
2021/07/10 02:20:49;;;;;;;;;;;;;;;21.19;53.63;96036.59;1012115;29;2487;-74
2021/07/10 02:21:20;;;;;;;;;;;;;;;21.20;53.59;96037.41;1008036;29;1721;-74
2021/07/10 02:21:50;;;;;;;;;;;;;;;21.19;53.46;96036.59;1010782;29;1132;-74
2021/07/10 02:22:20;;;;;;;;;;;;;;;21.20;53.48;96037.41;1015417;29;1256;-73
2021/07/10 02:22:50;;;;;;;;;;;;;;;21.20;53.52;96037.41;1014474;29;1722;-74
2021/07/10 02:23:21;;;;;;;;;;;;;;;21.21;53.39;96036.34;1015955;29;1075;-74
2021/07/10 02:23:51;;;;;;;;;;;;;;;21.21;53.39;96028.44;1014920;29;1115;-74
2021/07/10 02:24:21;;;;;;;;;;;;;;;21.19;53.44;96031.34;1013066;29;501;-73
2021/07/10 02:24:52;;;;;;;;;;;;;;;21.20;53.38;96034.78;1022617;29;1130;-74
2021/07/10 02:25:22;;;;;;;;;;;;;;;21.18;53.33;96035.06;1024031;29;1303;-74
2021/07/10 02:25:53;;;;;;;;;;;;;;;21.19;53.51;96030.53;1018627;29;2578;-73
2021/07/10 02:26:24;;;;;;;;;;;;;;;21.19;53.45;96027.91;1021825;29;1158;-75
2021/07/10 02:26:54;;;;;;;;;;;;;;;21.20;53.24;96032.13;1023903;29;1435;-73
2021/07/10 02:27:24;;;;;;;;;;;;;;;21.20;53.54;96035.56;1022578;29;1617;-75
2021/07/10 02:27:54;;;;;;;;;;;;;;;21.19;53.53;96030.53;1023360;29;1150;-75
2021/07/10 02:28:25;;;;;;;;;;;;;;;21.20;53.33;96026.88;1024851;29;1165;-75
2021/07/10 02:28:55;;;;;;;;;;;;;;;21.19;53.48;96023.44;1024699;29;1102;-73
2021/07/10 02:29:25;;;;;;;;;;;;;;;21.19;53.36;96033.19;1020828;29;1214;-73
2021/07/10 02:29:56;;;;;;;;;;;;;;;21.20;53.59;96029.50;1021737;29;1221;-74
2021/07/10 02:30:26;;;;;;;;;;;;;;;21.18;53.58;96035.06;1022539;28;1161;-74
2021/07/10 02:30:57;;;;;;;;;;;;;;;21.19;53.41;96030.53;1016851;29;2497;-72
2021/07/10 02:31:27;;;;;;;;;;;;;;;21.18;53.50;96027.13;1015718;29;2497;-74
2021/07/10 02:31:57;;;;;;;;;;;;;;;21.19;53.31;96025.28;1015904;29;1203;-74
2021/07/10 02:32:28;;;;;;;;;;;;;;;21.18;53.55;96027.13;1016964;29;1078;-73
2021/07/10 02:32:58;;;;;;;;;;;;;;;21.18;53.36;96027.13;1017871;29;1147;-72
2021/07/10 02:33:28;;;;;;;;;;;;;;;21.18;53.43;96024.50;1017066;29;1115;-74
2021/07/10 02:33:58;;;;;;;;;;;;;;;21.18;53.54;96028.97;1020696;29;1233;-73
2021/07/10 02:34:29;;;;;;;;;;;;;;;21.18;53.26;96023.72;1019524;29;1153;-73
2021/07/10 02:34:59;;;;;;;;;;;;;;;21.18;53.30;96024.50;1019613;29;1194;-74
2021/07/10 02:35:29;;;;;;;;;;;;;;;21.18;53.44;96018.44;1016782;29;1208;-74
2021/07/10 02:36:00;;;;;;;;;;;;;;;21.17;53.41;96020.28;1017272;29;2940;-74
2021/07/10 02:36:30;;;;;;;;;;;;;;;21.18;53.37;96021.06;1017132;29;690;-73
2021/07/10 02:37:01;;;;;;;;;;;;;;;21.18;53.16;96018.44;1018927;29;1664;-74
2021/07/10 02:37:31;;;;;;;;;;;;;;;21.17;53.19;96016.84;1018992;29;1214;-75
2021/07/10 02:38:01;;;;;;;;;;;;;;;21.18;53.32;96013.97;1020467;29;1249;-73
2021/07/10 02:38:31;;;;;;;;;;;;;;;21.18;53.15;96013.97;1020004;29;932;-74
2021/07/10 02:39:02;;;;;;;;;;;;;;;21.19;53.38;96017.38;1019027;29;1122;-75
2021/07/10 02:39:32;;;;;;;;;;;;;;;21.19;53.23;96009.44;1015887;29;2924;-74
2021/07/10 02:40:03;;;;;;;;;;;;;;;21.19;53.40;96004.19;1023854;29;1531;-74
2021/07/10 02:40:35;;;;;;;;;;;;;;;21.19;53.27;96014.72;1019775;29;1337;-75
2021/07/10 02:41:05;;;;;;;;;;;;;;;21.18;53.48;96008.69;1012768;29;2394;-76